Terminal Aerodrome Forecast
Issued by NWS

Current Version | Previous Version | Text Only | Print | Product List | Glossary On
Versions: 1 2 3 4 5 6 7 8 9 10 11 12 13 14 15 16 17 18 19 20 21 22 23 24 25 26 27 28
000
FTUS41 KILN 291500 AAA
TAFLUK
TAF AMD
KLUK 291506Z 2915/3012 19007KT P6SM SCT020 BKN120
     FM291700 20009KT P6SM VCSH SCT035
     FM291900 19010KT P6SM SCT050
     FM300000 19006KT P6SM SCT100
     FM300900 19006KT 3SM BR SCT060=

USA.gov is the U.S. government's official web portal to all federal, state and local government web resources and services.